Time;durP1;ratioP1;P1;durP2;ratioP2;P2;SDS_P1;SDS_P2;PMS_P1;PMS_P2;Temp;Humidity;BMP_temperature;BMP_pressure;BME280_temperature;BME280_humidity;BME280_pressure;Samples;Min_cycle;Max_cycle;Signal;HPM_P1;HPM_P2
2021/08/07 00:00:54;;;;;;;;;0.00;0.00;;;;;27.41;39.17;99758.38;5055084;28;45478;-66
2021/08/07 00:03:19;;;;;;;;;0.00;0.00;;;;;27.39;39.60;99753.06;5055080;28;45472;-65
2021/08/07 00:05:45;;;;;;;;;0.00;0.00;;;;;27.40;39.75;99760.25;5055126;28;45403;-66
2021/08/07 00:08:10;;;;;;;;;0.00;0.00;;;;;27.40;39.14;99759.38;5055546;28;45452;-66
2021/08/07 00:10:36;;;;;;;;;0.00;0.00;;;;;27.37;38.94;99748.66;5055537;28;45552;-66
2021/08/07 00:13:01;;;;;;;;;0.00;0.00;;;;;27.38;39.19;99751.28;5055073;28;46098;-66
2021/08/07 00:15:28;;;;;;;;;0.00;0.00;;;;;27.36;39.14;99744.22;5054875;28;45377;-65
2021/08/07 00:17:53;;;;;;;;;0.00;0.00;;;;;27.37;39.16;99744.09;5055307;28;45500;-65
2021/08/07 00:20:19;;;;;;;;;0.00;0.00;;;;;27.37;39.15;99748.66;5055496;28;45461;-66
2021/08/07 00:22:44;;;;;;;;;0.00;0.00;;;;;27.34;39.10;99739.72;5054865;28;45490;-65
2021/08/07 00:25:11;;;;;;;;;0.00;0.00;;;;;27.36;39.42;99739.59;5054872;28;45444;-65
2021/08/07 00:27:36;;;;;;;;;0.00;0.00;;;;;27.33;39.36;99743.44;5055230;28;45495;-65
2021/08/07 00:30:06;;;;;;;;;0.00;0.00;;;;;27.32;39.16;99747.13;5053928;28;45519;-66
2021/08/07 00:32:32;;;;;;;;;0.00;0.00;;;;;27.34;39.20;99739.72;5054993;28;46176;-66
2021/08/07 00:34:57;;;;;;;;;0.00;0.00;;;;;27.33;39.68;99739.84;5054664;28;45448;-65
2021/08/07 00:37:24;;;;;;;;;0.00;0.00;;;;;27.32;39.19;99741.69;5054932;28;45563;-66
2021/08/07 00:39:49;;;;;;;;;0.00;0.00;;;;;27.31;39.83;99733.63;5054841;28;45502;-65
2021/08/07 00:42:14;;;;;;;;;0.00;0.00;;;;;27.30;39.65;99735.47;5054343;28;46178;-65
2021/08/07 00:44:40;;;;;;;;;0.00;0.00;;;;;27.30;39.72;99730.00;5054914;28;45401;-66
2021/08/07 00:47:05;;;;;;;;;0.00;0.00;;;;;27.31;39.64;99734.50;5057062;28;45730;-65
2021/08/07 00:49:31;;;;;;;;;0.00;0.00;;;;;27.30;39.85;99731.84;5075126;28;45539;-65
2021/08/07 00:51:56;;;;;;;;;0.00;0.00;;;;;27.31;39.47;99729.03;5074808;28;45400;-65
2021/08/07 00:54:22;;;;;;;;;0.00;0.00;;;;;27.30;39.80;99732.72;5074661;28;45519;-65
2021/08/07 00:56:47;;;;;;;;;0.00;0.00;;;;;27.30;39.59;99730.00;5056849;28;45476;-65
2021/08/07 00:59:12;;;;;;;;;0.00;0.00;;;;;27.29;39.37;99728.25;5074814;28;44777;-65
2021/08/07 01:01:44;;;;;;;;;0.00;0.00;;;;;27.29;39.47;99725.53;5074246;28;45602;-66
2021/08/07 01:04:17;;;;;;;;;0.00;0.00;;;;;27.29;39.89;99724.66;5074684;28;45480;-66
2021/08/07 01:06:57;;;;;;;;;0.00;0.00;;;;;27.29;39.87;99719.22;5074570;28;45456;-66
2021/08/07 01:10:00;;;;;;;;;0.00;0.00;;;;;27.28;39.88;99717.44;5056575;28;45470;-66
2021/08/07 01:12:40;;;;;;;;;0.33;0.00;;;;;27.27;39.31;99716.59;5074589;28;45574;-65
2021/08/07 01:15:08;;;;;;;;;0.00;0.00;;;;;27.27;39.31;99715.72;5056193;28;45965;-66
2021/08/07 01:17:36;;;;;;;;;0.00;0.00;;;;;27.27;39.97;99705.66;5074618;28;45486;-66
2021/08/07 01:20:13;;;;;;;;;0.00;0.00;;;;;27.26;39.54;99713.97;5075055;28;44912;-67
2021/08/07 01:22:45;;;;;;;;;0.00;0.00;;;;;27.25;39.85;99713.09;5078060;28;46076;-66
2021/08/07 01:25:16;;;;;;;;;0.00;0.00;;;;;27.24;39.81;99718.66;5078471;28;45997;-65
2021/08/07 01:27:43;;;;;;;;;0.00;0.00;;;;;27.25;39.39;99714.97;5078120;28;45390;-66
2021/08/07 01:30:11;;;;;;;;;0.00;0.00;;;;;27.24;39.57;99710.47;5077942;28;45454;-65
2021/08/07 01:32:45;;;;;;;;;0.00;0.00;;;;;27.22;39.37;99705.06;5077637;28;45655;-65
2021/08/07 01:35:11;;;;;;;;;0.00;0.00;;;;;27.22;39.93;99707.81;5077793;28;45812;-65
2021/08/07 01:37:38;;;;;;;;;0.33;0.33;;;;;27.20;39.69;99703.44;5077701;28;45486;-65
2021/08/07 01:40:04;;;;;;;;;0.00;0.00;;;;;27.20;39.49;99697.97;5078120;28;45408;-65
2021/08/07 01:42:30;;;;;;;;;0.00;0.00;;;;;27.18;39.95;99692.63;5077800;28;46140;-66
2021/08/07 01:44:55;;;;;;;;;0.00;0.00;;;;;27.17;39.62;99698.19;5059373;28;45713;-66
2021/08/07 01:47:51;;;;;;;;;0.00;0.00;;;;;27.16;39.87;99697.31;5076268;28;45782;-66
2021/08/07 01:50:24;;;;;;;;;0.00;0.00;;;;;27.16;39.80;99696.47;5078160;28;44919;-65
2021/08/07 01:52:52;;;;;;;;;0.00;0.00;;;;;27.14;39.68;99694.69;5059247;28;46817;-66
2021/08/07 01:55:24;;;;;;;;;0.00;0.00;;;;;27.12;39.91;99687.59;5077324;28;45469;-66
2021/08/07 01:58:06;;;;;;;;;0.00;0.00;;;;;27.11;39.99;99686.75;5077821;28;45650;-65
2021/08/07 02:00:32;;;;;;;;;0.00;0.00;;;;;27.10;40.04;99693.16;5077393;28;45511;-65
2021/08/07 02:02:59;;;;;;;;;0.00;0.00;;;;;27.09;39.86;99683.25;5077427;27;46024;-65
2021/08/07 02:05:25;;;;;;;;;0.00;0.00;;;;;27.07;39.45;99682.50;5059269;28;45658;-65
2021/08/07 02:07:52;;;;;;;;;0.00;0.00;;;;;27.07;39.45;99685.22;5077666;28;45728;-65
2021/08/07 02:10:26;;;;;;;;;0.00;0.00;;;;;27.06;40.04;99677.13;5077543;28;45411;-65
2021/08/07 02:12:52;;;;;;;;;0.00;0.00;;;;;27.04;40.09;99676.38;5077223;28;46193;-66
2021/08/07 02:15:19;;;;;;;;;0.00;0.00;;;;;27.03;40.09;99674.66;5077038;28;45477;-65
2021/08/07 02:17:52;;;;;;;;;0.00;0.00;;;;;27.02;39.72;99667.41;5077090;28;45417;-65
2021/08/07 02:20:18;;;;;;;;;0.00;0.00;;;;;27.02;39.74;99681.94;5059058;28;45493;-66
2021/08/07 02:22:47;;;;;;;;;0.00;0.00;;;;;27.02;39.75;99675.59;5076928;28;45444;-66
2021/08/07 02:25:13;;;;;;;;;0.00;0.00;;;;;27.01;40.05;99680.19;5058707;28;45366;-65
2021/08/07 02:27:39;;;;;;;;;0.00;0.00;;;;;27.01;39.66;99676.59;5077104;28;45450;-65
2021/08/07 02:30:07;;;;;;;;;0.00;0.00;;;;;26.99;39.94;99673.97;5077399;28;45416;-65
2021/08/07 02:32:36;;;;;;;;;0.00;0.00;;;;;26.99;40.19;99662.19;5075445;28;45469;-66
2021/08/07 02:35:05;;;;;;;;;0.00;0.00;;;;;26.99;39.87;99668.53;5076998;28;45471;-65
2021/08/07 02:37:31;;;;;;;;;0.00;0.00;;;;;26.98;40.17;99658.56;5042253;28;45492;-65
2021/08/07 02:39:57;;;;;;;;;0.00;0.00;;;;;26.98;39.62;99668.63;5058631;28;44942;-65
2021/08/07 02:42:23;;;;;;;;;0.00;0.00;;;;;26.96;39.70;99662.41;5076536;28;45474;-65
2021/08/07 02:44:49;;;;;;;;;0.00;0.00;;;;;26.98;40.03;99657.72;5076562;28;45758;-66
2021/08/07 02:47:15;;;;;;;;;0.00;0.00;;;;;26.97;39.97;99658.72;5075239;28;45484;-65
2021/08/07 02:49:40;;;;;;;;;0.00;0.00;;;;;26.95;39.66;99656.09;5077101;28;45483;-65
2021/08/07 02:52:06;;;;;;;;;0.00;0.00;;;;;26.95;39.57;99653.34;5076889;28;45464;-65
2021/08/07 02:54:32;;;;;;;;;0.00;0.00;;;;;26.94;40.12;99646.13;5076958;28;45397;-66
2021/08/07 02:56:57;;;;;;;;;0.00;0.00;;;;;26.93;39.78;99642.53;5076883;28;45457;-65
2021/08/07 02:59:25;;;;;;;;;0.00;0.00;;;;;26.92;39.95;99643.53;5076910;28;45350;-65
2021/08/07 03:01:51;;;;;;;;;0.00;0.00;;;;;26.92;39.68;99639.91;5076225;28;46131;-66
2021/08/07 03:04:16;;;;;;;;;0.00;0.00;;;;;26.92;39.63;99639.91;5076652;28;45524;-66
2021/08/07 03:06:42;;;;;;;;;0.00;0.00;;;;;26.92;39.72;99635.34;5076781;28;45463;-66
2021/08/07 03:09:07;;;;;;;;;0.00;0.00;;;;;26.91;40.00;99633.59;5076641;28;45515;-65
2021/08/07 03:11:33;;;;;;;;;0.00;0.00;;;;;26.90;40.22;99634.56;5076418;28;45443;-66
2021/08/07 03:13:59;;;;;;;;;0.00;0.00;;;;;26.90;39.92;99625.50;5076464;28;45632;-66
2021/08/07 03:16:27;;;;;;;;;0.00;0.00;;;;;26.90;39.64;99628.25;5076427;28;45489;-66
2021/08/07 03:18:52;;;;;;;;;0.00;0.00;;;;;26.90;40.24;99623.66;5058340;28;45442;-65
2021/08/07 03:21:17;;;;;;;;;0.00;0.00;;;;;26.89;40.11;99611.00;5076154;28;45440;-65
2021/08/07 03:23:43;;;;;;;;;0.00;0.00;;;;;26.89;40.02;99613.72;5075946;28;45492;-65
2021/08/07 03:26:10;;;;;;;;;0.00;0.00;;;;;26.86;39.68;99611.22;5076364;28;45362;-66
2021/08/07 03:28:35;;;;;;;;;0.00;0.00;;;;;26.88;39.84;99619.28;5058265;28;45537;-66
2021/08/07 03:31:00;;;;;;;;;0.00;0.00;;;;;26.87;39.95;99615.69;5076078;28;45472;-65
2021/08/07 03:33:26;;;;;;;;;0.00;0.00;;;;;26.88;39.68;99622.03;5075857;28;45460;-65
2021/08/07 03:35:51;;;;;;;;;0.00;0.00;;;;;26.84;40.11;99613.19;5057908;28;44814;-65
2021/08/07 03:38:16;;;;;;;;;0.00;0.00;;;;;26.86;40.06;99615.81;5076049;28;45485;-65
2021/08/07 03:40:42;;;;;;;;;0.00;0.00;;;;;26.83;39.88;99603.25;5075529;28;46210;-65
2021/08/07 03:43:07;;;;;;;;;0.00;0.00;;;;;26.84;40.20;99605.00;5075533;28;45457;-65
2021/08/07 03:45:32;;;;;;;;;0.00;0.00;;;;;26.83;39.68;99597.81;5075762;28;45478;-65
2021/08/07 03:47:58;;;;;;;;;0.00;0.00;;;;;26.84;39.77;99595.94;5074890;28;45443;-65
2021/08/07 03:50:23;;;;;;;;;0.00;0.00;;;;;26.83;39.68;99600.53;5075997;28;45619;-65
2021/08/07 03:52:50;;;;;;;;;0.00;0.00;;;;;26.83;40.12;99595.06;5075812;28;45543;-65
2021/08/07 03:55:16;;;;;;;;;0.00;0.00;;;;;26.82;40.31;99585.13;5075841;28;45572;-65
2021/08/07 03:57:59;;;;;;;;;0.00;0.00;;;;;26.84;39.89;99595.94;5075973;28;45409;-65
2021/08/07 04:00:28;;;;;;;;;0.00;0.00;;;;;26.83;40.19;99596.94;5075366;28;46439;-65
2021/08/07 04:02:53;;;;;;;;;0.00;0.00;;;;;26.83;39.77;99597.81;5056897;28;45794;-65
2021/08/07 04:05:19;;;;;;;;;0.00;0.00;;;;;26.82;40.20;99582.41;5073841;28;45428;-65
2021/08/07 04:07:45;;;;;;;;;0.00;0.00;;;;;26.82;40.07;99587.84;5075642;28;45521;-65
2021/08/07 04:10:13;;;;;;;;;0.00;0.00;;;;;26.79;39.58;99588.09;5057156;28;47983;-65
2021/08/07 04:12:38;;;;;;;;;0.00;0.00;;;;;26.83;40.00;99596.94;5075235;28;45460;-65
2021/08/07 04:15:05;;;;;;;;;0.00;0.00;;;;;26.84;39.71;99582.31;5075157;28;45484;-65
2021/08/07 04:17:31;;;;;;;;;0.00;0.00;;;;;26.83;40.17;99575.97;5075252;28;45448;-67
2021/08/07 04:19:56;;;;;;;;;0.00;0.00;;;;;26.82;39.96;99582.41;5075338;28;45989;-65
2021/08/07 04:22:23;;;;;;;;;0.00;0.00;;;;;26.72;40.16;99563.13;5075224;28;45506;-65
2021/08/07 04:24:48;;;;;;;;;0.00;0.00;;;;;26.81;39.94;99583.41;5075468;28;44808;-65
2021/08/07 04:27:14;;;;;;;;;0.00;0.00;;;;;26.81;40.46;99577.09;5075617;28;45407;-65
2021/08/07 04:29:39;;;;;;;;;0.00;0.00;;;;;26.83;40.06;99586.91;5056869;28;47990;-65
2021/08/07 04:32:05;;;;;;;;;0.00;0.00;;;;;26.82;40.16;99585.13;5075214;28;45451;-65
2021/08/07 04:34:30;;;;;;;;;0.00;0.00;;;;;26.82;40.27;99579.69;5075506;28;45405;-65
2021/08/07 04:36:56;;;;;;;;;0.00;0.00;;;;;26.77;40.24;99565.50;5075494;28;45551;-65
2021/08/07 04:39:22;;;;;;;;;0.00;0.00;;;;;26.82;40.18;99576.94;5056595;28;45438;-65
2021/08/07 04:41:47;;;;;;;;;0.00;0.00;;;;;26.81;39.74;99577.09;5075179;28;45485;-65
2021/08/07 04:44:12;;;;;;;;;0.00;0.00;;;;;26.81;40.13;99574.34;5056915;28;45425;-65
2021/08/07 04:46:39;;;;;;;;;0.00;0.00;;;;;26.81;40.29;99569.75;5075078;28;45499;-65
2021/08/07 04:49:04;;;;;;;;;0.00;0.00;;;;;26.81;40.06;99571.63;5073384;28;45400;-65
2021/08/07 04:51:30;;;;;;;;;0.00;0.00;;;;;26.79;39.71;99574.47;5074912;28;45476;-65
2021/08/07 04:53:55;;;;;;;;;0.00;0.00;;;;;26.78;40.23;99572.69;5075293;28;45803;-65
2021/08/07 04:56:20;;;;;;;;;0.00;0.00;;;;;26.78;39.75;99559.06;5074416;28;45819;-65
2021/08/07 04:58:46;;;;;;;;;0.00;0.00;;;;;26.79;40.07;99565.41;5074690;28;45505;-65
2021/08/07 05:01:11;;;;;;;;;0.00;0.00;;;;;26.79;39.98;99555.38;5074794;28;45672;-65
2021/08/07 05:03:37;;;;;;;;;0.00;0.00;;;;;26.78;40.00;99553.59;5074520;28;45540;-65
2021/08/07 05:06:02;;;;;;;;;0.00;0.00;;;;;26.77;40.34;99557.34;5074872;28;45374;-65
2021/08/07 05:08:28;;;;;;;;;0.00;0.00;;;;;26.78;39.61;99556.34;5074777;28;45384;-65
2021/08/07 05:10:53;;;;;;;;;0.00;0.00;;;;;26.77;39.60;99549.16;5074311;28;45399;-65
2021/08/07 05:13:18;;;;;;;;;0.00;0.00;;;;;26.77;39.91;99554.59;5074753;28;44871;-65
2021/08/07 05:15:44;;;;;;;;;0.00;0.00;;;;;26.78;39.76;99555.47;5074732;28;44876;-65
2021/08/07 05:18:09;;;;;;;;;0.00;0.00;;;;;26.77;39.58;99551.88;5074534;28;45705;-65
2021/08/07 05:20:35;;;;;;;;;0.00;0.00;;;;;26.77;40.08;99551.00;5074286;28;45437;-65
2021/08/07 05:23:01;;;;;;;;;0.00;0.00;;;;;26.75;39.81;99545.66;5074550;28;45786;-65
2021/08/07 05:25:26;;;;;;;;;0.00;0.00;;;;;26.76;39.92;99549.25;5074697;28;45430;-65
2021/08/07 05:27:51;;;;;;;;;0.00;0.00;;;;;26.74;39.97;99536.63;5074708;28;46195;-65
2021/08/07 05:30:17;;;;;;;;;0.00;0.00;;;;;26.74;40.13;99535.72;5074404;28;45516;-65
2021/08/07 05:32:42;;;;;;;;;0.00;0.00;;;;;26.75;40.19;99534.75;5074387;28;45429;-65
2021/08/07 05:35:08;;;;;;;;;0.00;0.00;;;;;26.74;40.21;99539.34;5074310;28;45522;-65
2021/08/07 05:37:40;;;;;;;;;0.00;0.00;;;;;26.76;39.85;99531.03;5074410;28;46026;-65
2021/08/07 05:40:11;;;;;;;;;0.00;0.00;;;;;26.75;40.36;99526.56;5056625;28;45456;-65
2021/08/07 05:42:37;;;;;;;;;0.00;0.00;;;;;26.76;39.96;99538.34;5074120;28;45444;-65
2021/08/07 05:45:04;;;;;;;;;0.00;0.00;;;;;26.74;39.69;99522.06;5074184;28;45484;-64
2021/08/07 05:47:29;;;;;;;;;0.00;0.00;;;;;26.76;40.18;99528.28;5072455;28;46567;-65
2021/08/07 05:49:55;;;;;;;;;0.00;0.00;;;;;26.76;40.18;99522.84;5074082;28;45432;-65
2021/08/07 05:52:20;;;;;;;;;0.00;0.00;;;;;26.76;40.35;99513.78;5074269;28;45606;-65
2021/08/07 05:54:45;;;;;;;;;0.00;0.00;;;;;26.78;40.27;99534.50;5074116;28;45416;-65
2021/08/07 05:57:11;;;;;;;;;0.00;0.00;;;;;26.79;40.25;99533.53;5073922;28;45500;-65
2021/08/07 05:59:36;;;;;;;;;0.00;0.00;;;;;26.79;39.75;99536.28;5056036;28;45504;-65
2021/08/07 06:02:02;;;;;;;;;0.00;0.00;;;;;26.83;39.86;99526.88;5074424;27;45409;-65
2021/08/07 06:04:29;;;;;;;;;0.00;0.00;;;;;26.83;39.71;99536.94;5074619;28;45456;-65
2021/08/07 06:06:55;;;;;;;;;0.00;0.00;;;;;26.83;40.17;99531.47;5057497;28;46147;-65
2021/08/07 06:09:21;;;;;;;;;0.00;0.00;;;;;26.84;39.77;99534.06;5077587;28;45858;-65
2021/08/07 06:11:46;;;;;;;;;0.00;0.00;;;;;26.86;40.10;99531.22;5077522;28;45490;-65
2021/08/07 06:14:11;;;;;;;;;0.00;0.00;;;;;26.87;39.56;99522.94;5077982;28;45233;-65
2021/08/07 06:16:38;;;;;;;;;0.00;0.00;;;;;26.88;40.17;99529.25;5076720;28;45419;-65
2021/08/07 06:19:03;;;;;;;;;0.00;0.00;;;;;26.89;40.17;99536.47;5077413;28;45772;-65
2021/08/07 06:21:29;;;;;;;;;0.67;0.00;;;;;26.90;39.59;99533.63;5077242;28;45417;-65
2021/08/07 06:23:55;;;;;;;;;0.00;0.00;;;;;26.88;40.01;99530.13;5058716;28;45770;-65
2021/08/07 06:26:20;;;;;;;;;0.00;0.00;;;;;26.91;39.64;99534.50;5076791;28;45523;-65
2021/08/07 06:28:46;;;;;;;;;0.00;0.00;;;;;26.92;39.80;99537.13;5058910;28;45465;-65
2021/08/07 06:31:12;;;;;;;;;0.00;0.00;;;;;26.92;39.73;99531.69;5077413;28;45448;-65
2021/08/07 06:33:37;;;;;;;;;0.00;0.00;;;;;26.93;39.73;99527.09;5058754;28;45590;-65
2021/08/07 06:36:03;;;;;;;;;0.00;0.00;;;;;26.94;39.48;99535.16;5077065;28;46296;-65
2021/08/07 06:38:28;;;;;;;;;0.00;0.00;;;;;26.95;39.93;99530.56;5076824;28;45522;-65
2021/08/07 06:40:54;;;;;;;;;0.00;0.00;;;;;26.96;39.55;99531.44;5076707;28;45768;-66
2021/08/07 06:43:19;;;;;;;;;0.00;0.00;;;;;26.97;39.97;99525.00;5076826;28;45463;-65
2021/08/07 06:45:46;;;;;;;;;0.00;0.00;;;;;26.99;39.85;99528.50;5076798;28;45437;-66
2021/08/07 06:48:12;;;;;;;;;0.00;0.00;;;;;27.02;39.44;99530.97;5075658;28;45480;-66
2021/08/07 06:50:37;;;;;;;;;0.00;0.00;;;;;27.02;39.39;99531.84;5076769;28;45488;-66
2021/08/07 06:53:03;;;;;;;;;0.00;0.00;;;;;27.04;39.93;99521.69;5077069;28;45346;-65
2021/08/07 06:55:28;;;;;;;;;0.00;0.00;;;;;27.01;39.42;99512.88;5076501;28;46441;-65
2021/08/07 06:58:00;;;;;;;;;0.00;0.00;;;;;27.07;39.92;99517.88;5076604;28;45436;-65
2021/08/07 07:00:25;;;;;;;;;0.00;0.00;;;;;27.09;39.84;99522.22;5059458;28;45544;-65
2021/08/07 07:02:50;;;;;;;;;0.00;0.00;;;;;27.12;39.61;99523.84;5077010;28;45440;-65
2021/08/07 07:05:16;;;;;;;;;0.00;0.00;;;;;27.14;39.68;99524.63;5076611;28;45504;-65
2021/08/07 07:07:41;;;;;;;;;0.00;0.00;;;;;27.16;39.10;99528.09;5076638;28;45669;-66
2021/08/07 07:10:09;;;;;;;;;0.00;0.00;;;;;27.18;39.20;99531.59;5076625;28;45477;-66
2021/08/07 07:12:34;;;;;;;;;0.00;0.00;;;;;27.19;39.67;99525.16;5076663;28;45435;-66
2021/08/07 07:14:59;;;;;;;;;0.00;0.00;;;;;27.21;39.32;99519.56;5076133;28;45967;-65
2021/08/07 07:17:26;;;;;;;;;0.00;0.00;;;;;27.22;39.45;99527.63;5075864;28;45425;-65
2021/08/07 07:19:51;;;;;;;;;0.00;0.00;;;;;27.23;39.54;99518.50;5075571;28;45619;-65
2021/08/07 07:22:16;;;;;;;;;0.00;0.00;;;;;27.24;39.51;99514.78;5076464;28;45392;-66
2021/08/07 07:24:42;;;;;;;;;0.00;0.00;;;;;27.28;39.24;99509.97;5075986;28;46625;-65
2021/08/07 07:27:07;;;;;;;;;0.00;0.00;;;;;27.30;39.18;99513.47;5075764;28;45464;-66
2021/08/07 07:29:33;;;;;;;;;0.00;0.00;;;;;27.32;39.52;99512.34;5076054;28;45463;-65
2021/08/07 07:31:59;;;;;;;;;0.00;0.00;;;;;27.33;38.98;99510.50;5058042;28;45842;-65
2021/08/07 07:34:30;;;;;;;;;0.00;0.00;;;;;27.36;38.96;99512.13;5075732;28;46127;-66
2021/08/07 07:37:04;;;;;;;;;0.00;0.00;;;;;27.38;38.91;99510.16;5076185;28;45325;-66
2021/08/07 07:39:30;;;;;;;;;0.00;0.00;;;;;27.37;39.37;99514.75;5076127;28;45385;-65
2021/08/07 07:41:55;;;;;;;;;0.00;0.00;;;;;27.40;39.01;99502.72;5075914;28;45463;-65
2021/08/07 07:44:21;;;;;;;;;0.00;0.00;;;;;27.42;39.56;99501.59;5057924;28;47210;-65
2021/08/07 07:46:46;;;;;;;;;0.00;0.00;;;;;27.43;39.36;99510.66;5076089;28;45475;-65
2021/08/07 07:49:18;;;;;;;;;0.00;0.00;;;;;27.45;39.30;99511.41;5074913;28;45467;-66
2021/08/07 07:51:50;;;;;;;;;0.00;0.00;;;;;27.47;38.63;99504.88;5075950;28;45381;-66
2021/08/07 07:54:15;;;;;;;;;0.00;0.00;;;;;27.48;38.81;99500.28;5075182;28;46053;-65
2021/08/07 07:56:41;;;;;;;;;0.00;0.00;;;;;27.50;38.82;99501.88;5075688;28;44947;-65
2021/08/07 07:59:06;;;;;;;;;0.00;0.00;;;;;27.49;38.72;99502.91;5076078;28;45444;-65
2021/08/07 08:01:32;;;;;;;;;0.00;0.00;;;;;27.51;38.71;99500.03;5075982;28;45439;-66
2021/08/07 08:03:57;;;;;;;;;0.00;0.00;;;;;27.52;38.99;99491.72;5075353;28;45425;-65
2021/08/07 08:06:23;;;;;;;;;0.00;0.00;;;;;27.54;39.24;99488.88;5075581;28;45411;-65
2021/08/07 08:08:48;;;;;;;;;0.00;0.00;;;;;27.54;39.21;99484.28;5075799;28;45372;-66
2021/08/07 08:11:14;;;;;;;;;0.00;0.00;;;;;27.53;38.90;99478.94;5075728;28;45181;-65
2021/08/07 08:13:40;;;;;;;;;0.00;0.00;;;;;27.56;38.46;99481.44;5075148;28;45468;-66
2021/08/07 08:16:07;;;;;;;;;0.00;0.00;;;;;27.57;38.51;99476.84;5075269;28;45441;-65
2021/08/07 08:18:33;;;;;;;;;0.00;0.00;;;;;27.56;39.20;99484.16;5075111;28;45614;-66
2021/08/07 08:20:58;;;;;;;;;0.00;0.00;;;;;27.57;38.36;99480.47;5075226;28;45607;-65
2021/08/07 08:23:24;;;;;;;;;0.00;0.00;;;;;27.57;38.48;99469.53;5075169;28;45542;-65
2021/08/07 08:25:51;;;;;;;;;0.00;0.00;;;;;27.59;38.96;99472.13;5074727;28;45565;-66
2021/08/07 08:28:16;;;;;;;;;0.00;0.00;;;;;27.59;39.09;99481.22;5075383;28;45387;-65
2021/08/07 08:30:42;;;;;;;;;0.00;0.00;;;;;27.60;38.41;99465.69;5055792;28;45566;-65
2021/08/07 08:33:08;;;;;;;;;0.00;0.00;;;;;27.59;38.88;99473.03;5074910;28;45581;-66
2021/08/07 08:35:33;;;;;;;;;0.00;0.00;;;;;27.59;39.02;99464.84;5056640;28;45438;-65
2021/08/07 08:38:00;;;;;;;;;0.00;0.00;;;;;27.59;38.64;99462.09;5056962;28;45403;-65
2021/08/07 08:40:26;;;;;;;;;0.00;0.00;;;;;27.58;38.85;99457.63;5075498;28;45702;-65
2021/08/07 08:42:52;;;;;;;;;0.00;0.00;;;;;27.60;38.51;99462.97;5074908;28;45520;-65
2021/08/07 08:45:18;;;;;;;;;0.00;0.00;;;;;27.57;38.86;99450.44;5074888;28;45508;-65
2021/08/07 08:47:43;;;;;;;;;0.00;0.00;;;;;27.57;38.47;99453.16;5074018;28;45442;-65
2021/08/07 08:50:11;;;;;;;;;0.00;0.00;;;;;27.57;38.98;99455.88;5074624;28;45410;-65
2021/08/07 08:52:38;;;;;;;;;0.00;0.00;;;;;27.58;38.83;99454.03;5074707;28;45685;-66
2021/08/07 08:55:06;;;;;;;;;0.00;0.00;;;;;27.57;38.52;99457.72;5074956;28;45466;-66
2021/08/07 08:57:31;;;;;;;;;0.00;0.00;;;;;27.55;39.14;99452.38;5075038;28;45480;-66
2021/08/07 08:59:57;;;;;;;;;0.00;0.00;;;;;27.54;38.48;99456.97;5074866;28;45413;-65
2021/08/07 09:02:24;;;;;;;;;0.00;0.00;;;;;27.54;38.37;99445.19;5074376;27;45464;-65
2021/08/07 09:04:49;;;;;;;;;0.00;0.00;;;;;27.52;38.67;99445.28;5074490;28;45492;-66
2021/08/07 09:07:21;;;;;;;;;0.00;0.00;;;;;27.50;38.63;99446.41;5074507;28;45455;-66
2021/08/07 09:09:56;;;;;;;;;0.00;0.00;;;;;27.50;38.46;99441.81;5074713;28;45413;-66
2021/08/07 09:12:47;;;;;;;;;0.00;0.00;;;;;27.50;39.05;99441.81;5055836;28;45466;-65
2021/08/07 09:15:32;;;;;;;;;0.00;0.00;;;;;27.49;39.15;99440.09;5056082;28;45432;-65
2021/08/07 09:18:10;;;;;;;;;0.00;0.00;;;;;27.49;39.01;99431.91;5074646;28;45452;-66
2021/08/07 09:20:35;;;;;;;;;0.00;0.00;;;;;27.48;39.16;99435.59;5074614;28;45428;-66
2021/08/07 09:23:01;;;;;;;;;0.00;0.00;;;;;27.46;38.67;99423.94;5074259;28;45625;-66
2021/08/07 09:25:34;;;;;;;;;0.00;0.00;;;;;27.48;39.21;99434.75;5074311;28;45476;-66
2021/08/07 09:27:59;;;;;;;;;0.00;0.00;;;;;27.46;38.74;99428.53;5074139;28;45481;-66
2021/08/07 09:30:34;;;;;;;;;0.00;0.00;;;;;27.47;39.15;99430.25;5074300;28;45469;-65
2021/08/07 09:33:06;;;;;;;;;0.00;0.00;;;;;27.46;39.13;99425.78;5074190;28;46645;-65
2021/08/07 09:35:37;;;;;;;;;0.00;0.00;;;;;27.46;38.92;99423.06;5073972;28;45566;-65
2021/08/07 09:38:24;;;;;;;;;0.00;0.00;;;;;27.45;38.65;99415.84;5074137;28;45523;-65
2021/08/07 09:40:57;;;;;;;;;0.00;0.00;;;;;27.45;38.81;99418.56;5074533;28;45451;-65
2021/08/07 09:43:55;;;;;;;;;0.00;0.00;;;;;27.43;39.12;99421.44;5077413;28;46640;-65
2021/08/07 09:46:24;;;;;;;;;0.00;0.00;;;;;27.44;38.83;99422.31;4994829;28;45684;-65
2021/08/07 09:48:54;;;;;;;;;0.00;0.00;;;;;27.42;38.66;99418.81;4994760;28;45595;-65
2021/08/07 09:51:30;;;;;;;;;0.00;0.00;;;;;27.42;38.89;99422.41;4995296;28;45493;-65
2021/08/07 09:54:16;;;;;;;;;0.00;0.00;;;;;27.41;38.86;99417.97;4994884;28;45839;-65
2021/08/07 09:56:54;;;;;;;;;0.00;0.00;;;;;27.41;38.81;99417.06;4994586;28;45861;-66
2021/08/07 09:59:24;;;;;;;;;0.00;0.00;;;;;27.39;39.07;99417.22;4994995;28;45505;-66
2021/08/07 10:01:51;;;;;;;;;0.00;0.00;;;;;27.40;39.18;99426.28;4995149;28;45403;-65
2021/08/07 10:04:20;;;;;;;;;0.00;0.00;;;;;27.39;38.91;99435.44;4978033;28;46280;-66
2021/08/07 10:06:47;;;;;;;;;0.00;0.00;;;;;27.39;39.19;99435.44;4978897;28;45452;-66
2021/08/07 10:09:13;;;;;;;;;0.00;0.00;;;;;27.38;38.75;99433.72;4994627;28;45622;-65
2021/08/07 10:11:58;;;;;;;;;0.00;0.00;;;;;27.38;38.81;99436.44;4995138;28;45687;-65
2021/08/07 10:14:24;;;;;;;;;0.00;0.00;;;;;27.36;38.73;99430.22;4994503;28;45441;-65
2021/08/07 10:16:49;;;;;;;;;0.00;0.00;;;;;27.37;39.01;99429.22;4977892;28;45473;-65
2021/08/07 10:19:15;;;;;;;;;0.00;0.00;;;;;27.34;38.86;99417.53;4993884;28;45523;-65
2021/08/07 10:21:41;;;;;;;;;0.00;0.00;;;;;27.33;38.83;99407.63;5018480;28;45528;-65
2021/08/07 10:24:07;;;;;;;;;0.00;0.00;;;;;27.31;39.39;99406.88;5055861;28;46139;-66
2021/08/07 10:26:33;;;;;;;;;0.00;0.00;;;;;27.32;39.50;99419.53;5056675;28;45423;-65
2021/08/07 10:29:03;;;;;;;;;0.00;0.00;;;;;27.31;39.15;99411.47;5055598;28;45472;-66
2021/08/07 10:31:29;;;;;;;;;0.00;0.00;;;;;27.30;39.40;99407.84;5057078;28;45462;-65
2021/08/07 10:34:01;;;;;;;;;0.00;0.00;;;;;27.32;39.54;99402.28;5056666;28;45508;-65
2021/08/07 10:36:27;;;;;;;;;0.00;0.00;;;;;27.32;39.43;99402.28;5056738;28;45448;-65
2021/08/07 10:38:53;;;;;;;;;0.00;0.00;;;;;27.30;39.05;99391.47;5056714;28;45535;-65
2021/08/07 10:41:19;;;;;;;;;0.00;0.00;;;;;27.33;39.06;99387.66;5056769;28;45662;-66
2021/08/07 10:43:50;;;;;;;;;0.00;0.00;;;;;27.33;38.90;99376.75;5056372;28;45498;-66
2021/08/07 10:46:16;;;;;;;;;0.00;0.00;;;;;27.36;39.27;99383.81;5055054;28;45511;-65
2021/08/07 10:48:50;;;;;;;;;0.00;0.00;;;;;27.36;38.86;99370.16;5062304;28;45366;-66
2021/08/07 10:51:18;;;;;;;;;0.00;0.00;;;;;27.37;38.94;99369.16;5077156;28;45419;-65
2021/08/07 10:53:43;;;;;;;;;0.00;0.00;;;;;27.33;39.11;99377.59;5075551;28;45452;-65
2021/08/07 10:56:09;;;;;;;;;0.00;0.00;;;;;27.39;39.35;99376.25;5076729;28;45507;-65
2021/08/07 10:58:49;;;;;;;;;0.00;0.00;;;;;27.41;38.87;99373.38;5077244;28;45427;-65
2021/08/07 11:01:26;;;;;;;;;0.00;0.00;;;;;27.42;38.97;99375.16;5076752;28;45675;-65
2021/08/07 11:04:00;;;;;;;;;0.00;0.00;;;;;27.43;39.57;99371.41;5076671;27;45390;-65
2021/08/07 11:06:44;;;;;;;;;0.00;0.00;;;;;27.44;39.11;99365.84;5076559;28;45441;-65
2021/08/07 11:09:20;;;;;;;;;0.00;0.00;;;;;27.46;39.53;99363.00;5058265;28;45538;-65
2021/08/07 11:11:47;;;;;;;;;0.00;0.00;;;;;27.47;39.28;99368.34;5076771;28;45757;-65
2021/08/07 11:14:21;;;;;;;;;0.00;0.00;;;;;27.49;39.31;99373.66;5076320;28;46397;-65
2021/08/07 11:17:02;;;;;;;;;0.00;0.00;;;;;27.50;38.85;99369.94;5075948;28;45386;-65
2021/08/07 11:20:06;;;;;;;;;0.00;0.00;;;;;27.52;38.65;99367.97;5076377;28;45466;-65
2021/08/07 11:22:31;;;;;;;;;0.00;0.00;;;;;27.52;39.34;99348.84;5076330;28;45476;-65
2021/08/07 11:24:57;;;;;;;;;0.00;0.00;;;;;27.54;39.28;99352.34;5076186;28;45712;-65
2021/08/07 11:30:18;;;;;;;;;0.00;0.00;;;;;27.57;38.99;99333.00;5076496;28;45471;-65
2021/08/07 11:32:55;;;;;;;;;0.00;0.00;;;;;27.59;38.88;99328.28;5076343;28;45708;-65
2021/08/07 11:35:50;;;;;;;;;0.00;0.00;;;;;27.61;38.66;99334.50;5076189;28;45445;-65
2021/08/07 11:38:20;;;;;;;;;0.00;0.00;;;;;27.62;39.20;99333.47;5076454;28;45782;-65
2021/08/07 11:40:51;;;;;;;;;0.00;0.00;;;;;27.64;39.21;99347.03;5076314;28;45511;-65